Time;durP1;ratioP1;P1;durP2;ratioP2;P2;SDS_P1;SDS_P2;PMS_P1;PMS_P2;Temp;Humidity;BMP_temperature;BMP_pressure;BME280_temperature;BME280_humidity;BME280_pressure;Samples;Min_cycle;Max_cycle;Signal;HPM_P1;HPM_P2
2023/10/01 00:02:16;;;;;;;;;;;;;;;14.50;100.00;102312.66;4979138;28;19964;-85
2023/10/01 00:05:03;;;;;;;;;;;;;;;14.49;100.00;102316.25;4987243;28;19925;-86
2023/10/01 00:07:51;;;;;;;;;;;;;;;14.48;100.00;102311.84;4994862;28;19930;-84
2023/10/01 00:10:41;;;;;;;;;;;;;;;14.47;100.00;102315.47;4988372;28;20012;-86
2023/10/01 00:13:29;;;;;;;;;;;;;;;14.46;100.00;102311.06;4981608;28;20020;-86
2023/10/01 00:16:14;;;;;;;;;;;;;;;14.47;100.00;102310.13;4991296;28;19933;-87
2023/10/01 00:19:00;;;;;;;;;;;;;;;14.45;100.00;102298.66;4977916;28;19929;-85
2023/10/01 00:21:46;;;;;;;;;;;;;;;14.44;100.00;102306.72;4990645;28;19929;-87
2023/10/01 00:24:33;;;;;;;;;;;;;;;14.44;100.00;102301.38;4991718;28;20020;-87
2023/10/01 00:27:18;;;;;;;;;;;;;;;14.44;100.00;102290.72;4990202;28;19973;-86
2023/10/01 00:30:07;;;;;;;;;;;;;;;14.42;100.00;102297.91;4991859;28;21475;-87
2023/10/01 00:32:55;;;;;;;;;;;;;;;14.40;100.00;102301.50;4991185;28;19926;-86
2023/10/01 00:35:41;;;;;;;;;;;;;;;14.39;100.00;102297.09;4991043;28;20644;-86
2023/10/01 00:38:27;;;;;;;;;;;;;;;14.39;100.00;102301.56;4978548;28;19930;-87
2023/10/01 00:41:14;;;;;;;;;;;;;;;14.37;100.00;102300.75;4979909;28;19925;-85
2023/10/01 00:44:01;;;;;;;;;;;;;;;14.34;100.00;102296.38;4992327;28;19969;-86
2023/10/01 00:46:48;;;;;;;;;;;;;;;14.34;100.00;102293.72;4978875;28;19937;-87
2023/10/01 00:49:33;;;;;;;;;;;;;;;14.32;100.00;102297.41;4989827;28;19995;-85
2023/10/01 00:52:19;;;;;;;;;;;;;;;14.31;100.00;102292.97;4990404;28;19930;-84
2023/10/01 00:55:05;;;;;;;;;;;;;;;14.29;100.00;102294.84;4990303;28;19945;-84
2023/10/01 00:57:53;;;;;;;;;;;;;;;14.26;100.00;102293.16;4982745;28;19929;-86
2023/10/01 01:00:39;;;;;;;;;;;;;;;14.25;100.00;102292.31;4993494;28;20411;-86
2023/10/01 01:03:25;;;;;;;;;;;;;;;14.23;100.00;102261.31;4995977;28;20601;-88
2023/10/01 01:06:17;;;;;;;;;;;;;;;14.21;100.00;102257.84;4982507;28;19936;-85
2023/10/01 01:09:03;;;;;;;;;;;;;;;14.19;100.00;102249.94;4993698;28;19957;-86
2023/10/01 01:11:50;;;;;;;;;;;;;;;14.17;100.00;102245.59;4993277;28;19929;-86
2023/10/01 01:14:36;;;;;;;;;;;;;;;14.13;100.00;102240.34;4980697;28;19925;-84
2023/10/01 01:17:22;;;;;;;;;;;;;;;14.11;100.00;102246.69;4992255;28;19929;-85
2023/10/01 01:20:10;;;;;;;;;;;;;;;14.11;100.00;102236.03;4991923;28;19985;-85
2023/10/01 01:22:56;;;;;;;;;;;;;;;14.10;100.00;102248.47;4985277;28;19922;-85
2023/10/01 01:25:42;;;;;;;;;;;;;;;14.08;100.00;102242.34;4994645;28;19929;-85
2023/10/01 01:28:30;;;;;;;;;;;;;;;14.08;100.00;102242.34;4993309;28;19965;-85
2023/10/01 01:31:16;;;;;;;;;;;;;;;14.09;100.00;102237.88;4978871;28;20330;-85
2023/10/01 01:34:03;;;;;;;;;;;;;;;14.07;100.00;102223.75;4994807;28;19925;-85
2023/10/01 01:36:48;;;;;;;;;;;;;;;14.07;100.00;102229.09;4991187;28;19926;-86
2023/10/01 01:39:48;;;;;;;;;;;;;;;14.06;100.00;102232.69;4996117;28;19936;-85
2023/10/01 01:42:34;;;;;;;;;;;;;;;14.07;100.00;102245.06;4996288;28;19922;-84
2023/10/01 01:45:26;;;;;;;;;;;;;;;14.06;100.00;102243.34;4996695;28;20451;-84
2023/10/01 01:48:30;;;;;;;;;;;;;;;14.05;100.00;102239.78;4986211;28;19940;-86
2023/10/01 01:51:17;;;;;;;;;;;;;;;14.05;100.00;102238.94;4993253;28;19930;-85
2023/10/01 01:54:04;;;;;;;;;;;;;;;14.05;100.00;102231.81;4996659;28;20301;-85
2023/10/01 01:56:51;;;;;;;;;;;;;;;14.04;100.00;102230.06;4996806;28;19964;-85
2023/10/01 01:59:38;;;;;;;;;;;;;;;14.05;100.00;102230.94;4996168;28;19933;-84
2023/10/01 02:02:23;;;;;;;;;;;;;;;14.04;100.00;102230.06;4987193;28;19933;-84
2023/10/01 02:05:09;;;;;;;;;;;;;;;14.04;100.00;102219.41;4987355;28;19934;-85
2023/10/01 02:07:55;;;;;;;;;;;;;;;14.04;100.00;102215.88;4996396;28;20148;-85
2023/10/01 02:10:46;;;;;;;;;;;;;;;14.03;100.00;102204.38;4987040;28;20408;-86
2023/10/01 02:13:32;;;;;;;;;;;;;;;14.02;100.00;102213.28;5000221;28;19980;-86
2023/10/01 02:19:19;;;;;;;;;;;;;;;14.03;100.00;102211.47;4997296;28;19939;-87
2023/10/01 02:22:05;;;;;;;;;;;;;;;14.02;100.00;102209.75;5000985;28;20536;-83
2023/10/01 02:24:54;;;;;;;;;;;;;;;14.01;100.00;102203.56;4996845;28;19929;-85
2023/10/01 02:27:49;;;;;;;;;;;;;;;13.99;100.00;102198.28;5008512;28;19934;-86
2023/10/01 02:30:34;;;;;;;;;;;;;;;13.99;100.00;102194.75;4994147;28;20022;-85
2023/10/01 02:33:20;;;;;;;;;;;;;;;13.99;100.00;102192.09;4992818;28;19926;-86
2023/10/01 02:36:12;;;;;;;;;;;;;;;13.99;100.00;102194.75;4993046;28;20024;-86
2023/10/01 02:38:58;;;;;;;;;;;;;;;13.99;100.00;102192.97;5001407;28;19934;-85
2023/10/01 02:42:03;;;;;;;;;;;;;;;13.98;100.00;102180.59;4994488;28;20023;-85
2023/10/01 02:44:48;;;;;;;;;;;;;;;13.98;100.00;102185.91;5008318;28;19930;-85
2023/10/01 02:47:34;;;;;;;;;;;;;;;13.99;100.00;102200.06;4993481;28;19932;-85
2023/10/01 02:50:20;;;;;;;;;;;;;;;13.99;100.00;102203.63;4994439;28;19930;-85
2023/10/01 02:53:09;;;;;;;;;;;;;;;13.99;100.00;102202.75;4996079;28;19930;-85
2023/10/01 02:56:02;;;;;;;;;;;;;;;14.01;100.00;102189.38;4994128;28;19959;-86
2023/10/01 02:58:50;;;;;;;;;;;;;;;14.01;100.00;102184.06;4992095;28;19926;-86
2023/10/01 03:01:37;;;;;;;;;;;;;;;14.01;100.00;102184.94;4996860;28;19973;-85
2023/10/01 03:04:27;;;;;;;;;;;;;;;14.02;100.00;102180.47;4981626;28;19932;-85
2023/10/01 03:07:14;;;;;;;;;;;;;;;14.03;100.00;102182.19;4992953;28;19981;-85
2023/10/01 03:10:11;;;;;;;;;;;;;;;14.03;100.00;102185.72;4993520;28;20344;-85
2023/10/01 03:12:59;;;;;;;;;;;;;;;14.04;100.00;102189.25;4994808;28;19933;-86
2023/10/01 03:16:33;;;;;;;;;;;;;;;14.05;100.00;102177.69;4995822;28;20083;-85
2023/10/01 03:18:54;;;;;;;;;;;;;;;14.05;100.00;102180.34;4991124;28;20369;-86
2023/10/01 03:22:23;;;;;;;;;;;;;;;14.05;100.00;102177.69;4981364;28;19930;-84
2023/10/01 03:24:58;;;;;;;;;;;;;;;14.06;100.00;102168.78;4993991;28;19933;-85
2023/10/01 03:27:45;;;;;;;;;;;;;;;14.06;100.00;102171.44;5002691;28;20017;-84
2023/10/01 03:30:34;;;;;;;;;;;;;;;14.06;100.00;102171.44;4986869;28;19987;-86
2023/10/01 03:33:20;;;;;;;;;;;;;;;14.07;100.00;102165.19;4995061;28;19936;-85
2023/10/01 03:36:09;;;;;;;;;;;;;;;14.07;100.00;102162.53;4999399;28;19925;-85
2023/10/01 03:39:08;;;;;;;;;;;;;;;14.07;100.00;102159.84;4984902;28;19929;-84
2023/10/01 03:48:19;;;;;;;;;;;;;;;14.09;100.00;102163.31;4959972;28;19975;-85
2023/10/01 03:51:09;;;;;;;;;;;;;;;14.09;100.00;102168.63;4987861;28;19988;-85
2023/10/01 03:53:59;;;;;;;;;;;;;;;14.10;100.00;102162.38;4984377;28;19941;-85
2023/10/01 03:56:56;;;;;;;;;;;;;;;14.10;100.00;102157.06;4992922;28;19929;-85
2023/10/01 03:59:45;;;;;;;;;;;;;;;14.10;100.00;102160.59;4992982;28;20394;-85
2023/10/01 04:02:46;;;;;;;;;;;;;;;14.11;100.00;102154.34;4993872;28;19941;-85
2023/10/01 04:05:33;;;;;;;;;;;;;;;14.11;100.00;102153.50;4995366;28;19936;-84
2023/10/01 04:08:23;;;;;;;;;;;;;;;14.12;100.00;102144.56;4995844;28;19940;-84
2023/10/01 04:11:11;;;;;;;;;;;;;;;14.12;100.00;102152.56;4984457;28;19935;-85
2023/10/01 04:14:08;;;;;;;;;;;;;;;14.14;100.00;102156.03;4999892;28;20035;-85
2023/10/01 04:16:56;;;;;;;;;;;;;;;14.15;100.00;102151.56;5006875;28;19933;-85
2023/10/01 04:19:43;;;;;;;;;;;;;;;14.13;100.00;102155.13;4996040;28;19925;-85
2023/10/01 04:22:29;;;;;;;;;;;;;;;14.15;100.00;102152.41;4993322;28;20020;-85
2023/10/01 04:25:18;;;;;;;;;;;;;;;14.15;100.00;102148.91;4985771;28;20391;-86
2023/10/01 04:28:05;;;;;;;;;;;;;;;14.16;100.00;102145.31;4976575;28;20364;-86
2023/10/01 04:30:56;;;;;;;;;;;;;;;14.16;100.00;102151.50;4994247;28;19932;-85
2023/10/01 04:33:42;;;;;;;;;;;;;;;14.16;100.00;102146.16;5001862;28;19937;-85
2023/10/01 04:36:35;;;;;;;;;;;;;;;14.18;100.00;102141.66;4997296;28;19969;-85
2023/10/01 04:39:21;;;;;;;;;;;;;;;14.19;100.00;102145.19;5002341;28;20364;-85
2023/10/01 04:42:09;;;;;;;;;;;;;;;14.21;100.00;102140.66;4997222;28;19922;-85
2023/10/01 04:44:55;;;;;;;;;;;;;;;14.22;100.00;102143.25;4998333;28;20005;-85
2023/10/01 04:47:45;;;;;;;;;;;;;;;14.27;100.00;102145.72;4998640;28;21502;-85
2023/10/01 04:50:32;;;;;;;;;;;;;;;14.29;100.00;102138.56;4998739;28;19939;-85
2023/10/01 04:53:25;;;;;;;;;;;;;;;14.32;100.00;102143.75;4998982;28;19945;-87
2023/10/01 04:56:25;;;;;;;;;;;;;;;14.32;100.00;102148.22;4999133;28;20397;-88
2023/10/01 04:59:11;;;;;;;;;;;;;;;14.29;100.00;102143.91;5002329;28;19968;-91
2023/10/01 05:01:56;;;;;;;;;;;;;;;14.28;100.00;102138.63;5001335;28;19933;-89
2023/10/01 05:04:42;;;;;;;;;;;;;;;14.26;100.00;102144.00;4988845;28;19957;-88
2023/10/01 05:07:28;;;;;;;;;;;;;;;14.23;100.00;102139.66;4982853;28;19922;-88
2023/10/01 05:10:14;;;;;;;;;;;;;;;14.22;100.00;102142.41;4999057;28;19983;-89
2023/10/01 05:13:02;;;;;;;;;;;;;;;14.21;100.00;102140.66;4984189;28;19988;-88
2023/10/01 05:15:57;;;;;;;;;;;;;;;14.19;100.00;102138.06;4984218;28;19989;-88
2023/10/01 05:18:45;;;;;;;;;;;;;;;14.18;100.00;102131.00;4983725;28;19925;-87
2023/10/01 05:21:36;;;;;;;;;;;;;;;14.19;100.00;102146.06;4993127;28;20439;-86
2023/10/01 05:24:39;;;;;;;;;;;;;;;14.19;100.00;102143.41;4993450;28;19926;-88
2023/10/01 05:27:28;;;;;;;;;;;;;;;14.18;100.00;102140.78;4995697;28;19921;-88
2023/10/01 05:30:34;;;;;;;;;;;;;;;14.16;100.00;102143.50;4996425;28;19921;-88
2023/10/01 05:33:21;;;;;;;;;;;;;;;14.14;100.00;102145.38;4989911;28;19929;-93
2023/10/01 05:36:08;;;;;;;;;;;;;;;14.12;100.00;102142.75;4995788;28;19937;-89
2023/10/01 05:38:54;;;;;;;;;;;;;;;14.12;100.00;102147.22;4994218;28;19980;-88
2023/10/01 05:41:44;;;;;;;;;;;;;;;14.13;100.00;102149.81;4995408;28;19929;-88
2023/10/01 05:44:34;;;;;;;;;;;;;;;14.12;100.00;102141.91;4991738;28;19933;-88
2023/10/01 05:47:20;;;;;;;;;;;;;;;14.12;100.00;102142.75;4997926;28;19933;-89
2023/10/01 05:50:14;;;;;;;;;;;;;;;14.13;100.00;102149.81;4990954;28;20377;-88
2023/10/01 05:53:02;;;;;;;;;;;;;;;14.15;100.00;102159.56;4993097;28;19980;-89
2023/10/01 05:55:48;;;;;;;;;;;;;;;14.16;100.00;102148.81;4998496;28;19925;-88
2023/10/01 05:58:34;;;;;;;;;;;;;;;14.17;100.00;102166.53;4994288;28;20333;-88
2023/10/01 06:01:21;;;;;;;;;;;;;;;14.19;100.00;102158.50;4992570;28;20389;-90
2023/10/01 06:04:12;;;;;;;;;;;;;;;14.20;100.00;102158.44;4980451;28;19947;-90
2023/10/01 06:07:02;;;;;;;;;;;;;;;14.23;100.00;102170.78;4993590;28;19925;-89
2023/10/01 06:09:49;;;;;;;;;;;;;;;14.24;100.00;102156.53;4992368;28;19934;-89
2023/10/01 06:12:50;;;;;;;;;;;;;;;14.22;100.00;102148.59;4983061;28;19991;-90
2023/10/01 06:15:35;;;;;;;;;;;;;;;14.22;100.00;102148.59;4998266;28;19925;-89
2023/10/01 06:18:22;;;;;;;;;;;;;;;14.23;100.00;102142.31;4994690;28;20433;-88
2023/10/01 06:21:09;;;;;;;;;;;;;;;14.25;100.00;102152.91;4994732;28;19926;-88
2023/10/01 06:23:58;;;;;;;;;;;;;;;14.24;100.00;102138.75;4993820;28;19929;-88
2023/10/01 06:26:45;;;;;;;;;;;;;;;14.26;100.00;102142.22;4999832;28;20376;-88
2023/10/01 06:29:33;;;;;;;;;;;;;;;14.29;100.00;102137.69;4994088;28;20464;-89
2023/10/01 06:32:22;;;;;;;;;;;;;;;14.32;100.00;102141.09;4980644;28;19988;-89
2023/10/01 06:35:14;;;;;;;;;;;;;;;14.34;100.00;102141.88;4977548;28;19932;-91
2023/10/01 06:38:00;;;;;;;;;;;;;;;14.37;100.00;102144.44;4983996;28;19960;-90
2023/10/01 06:40:51;;;;;;;;;;;;;;;14.41;100.00;102142.53;4988050;28;19925;-90
2023/10/01 06:43:44;;;;;;;;;;;;;;;14.45;100.00;102144.13;4994751;28;19971;-89
2023/10/01 06:46:30;;;;;;;;;;;;;;;14.49;100.00;102148.38;4990100;28;19934;-89
2023/10/01 06:49:18;;;;;;;;;;;;;;;14.53;100.00;102152.66;4992435;28;19934;-90
2023/10/01 06:52:07;;;;;;;;;;;;;;;14.56;100.00;102157.00;4991888;28;21803;-90
2023/10/01 06:54:55;;;;;;;;;;;;;;;14.59;100.00;102151.53;4991244;28;19933;-89
2023/10/01 06:57:43;;;;;;;;;;;;;;;14.62;100.00;102151.44;4992211;28;19975;-89
2023/10/01 07:00:33;;;;;;;;;;;;;;;14.65;100.00;102150.41;4995494;28;19938;-88
2023/10/01 07:03:22;;;;;;;;;;;;;;;14.68;100.00;102150.28;4994389;28;19931;-88
2023/10/01 07:06:08;;;;;;;;;;;;;;;14.72;100.00;102148.38;4991873;28;19937;-88
2023/10/01 07:08:54;;;;;;;;;;;;;;;14.74;100.00;102144.75;4990321;28;19929;-88
2023/10/01 07:11:41;;;;;;;;;;;;;;;14.76;100.00;102142.88;4986534;28;20452;-89
2023/10/01 07:17:47;;;;;;;;;;;;;;;14.83;100.00;102137.28;4980706;28;19925;-88
2023/10/01 07:20:36;;;;;;;;;;;;;;;14.86;100.00;102138.00;4994538;28;20375;-88
2023/10/01 07:23:24;;;;;;;;;;;;;;;14.89;100.00;102142.34;4998124;28;20005;-87
2023/10/01 07:26:13;;;;;;;;;;;;;;;14.93;100.00;102138.63;4979757;28;20516;-89
2023/10/01 07:29:01;;;;;;;;;;;;;;;14.98;100.00;102147.25;4992601;28;19929;-88
2023/10/01 07:31:46;;;;;;;;;;;;;;;15.01;100.00;102136.50;4992652;28;20301;-88
2023/10/01 07:34:48;;;;;;;;;;;;;;;15.06;100.00;102141.59;4988943;28;21700;-84
2023/10/01 07:37:37;;;;;;;;;;;;;;;15.11;100.00;102146.72;4992391;28;19961;-88
2023/10/01 07:40:23;;;;;;;;;;;;;;;15.16;100.00;102145.59;4981992;28;19933;-89
2023/10/01 07:43:13;;;;;;;;;;;;;;;15.20;100.00;102135.69;4992302;28;19993;-88
2023/10/01 07:46:01;;;;;;;;;;;;;;;15.22;100.00;102144.47;4991766;28;20019;-89
2023/10/01 07:48:47;;;;;;;;;;;;;;;15.24;100.00;102141.75;4993818;28;19930;-88
2023/10/01 07:51:38;;;;;;;;;;;;;;;15.25;100.00;102144.31;4990411;28;20261;-89
2023/10/01 07:54:28;;;;;;;;;;;;;;;15.26;100.00;102140.72;4991211;28;19939;-88
2023/10/01 07:57:15;;;;;;;;;;;;;;;15.29;100.00;102151.25;4992440;28;19957;-87
2023/10/01 08:00:25;;;;;;;;;;;;;;;15.32;100.00;102153.78;4998899;28;20545;-88
2023/10/01 08:03:55;;;;;;;;;;;;;;;15.40;100.00;102149.91;4994263;28;19933;-91
2023/10/01 08:06:25;;;;;;;;;;;;;;;15.47;100.00;102154.03;4993241;28;20151;-89
2023/10/01 08:09:13;;;;;;;;;;;;;;;15.56;100.00;102150.94;4986671;28;21466;-90
2023/10/01 08:12:05;;;;;;;;;;;;;;;15.63;100.00;102153.34;4978809;28;19933;-89
2023/10/01 08:15:15;;;;;;;;;;;;;;;15.72;100.00;102145.78;4980792;28;19964;-88
2023/10/01 08:17:58;;;;;;;;;;;;;;;15.82;100.00;102146.22;4992274;28;19930;-88
2023/10/01 08:20:58;;;;;;;;;;;;;;;15.93;100.00;102150.19;4990035;28;19925;-88
2023/10/01 08:23:50;;;;;;;;;;;;;;;16.02;100.00;102137.25;4991079;28;20624;-88
2023/10/01 08:26:43;;;;;;;;;;;;;;;16.15;100.00;102145.56;4992281;28;19949;-86
2023/10/01 08:29:29;;;;;;;;;;;;;;;16.27;100.00;102145.88;4991397;28;19933;-87
2023/10/01 08:32:22;;;;;;;;;;;;;;;16.35;100.00;102146.38;4981977;28;20008;-87
2023/10/01 08:35:08;;;;;;;;;;;;;;;16.44;100.00;102139.72;4993866;28;20492;-85
2023/10/01 08:37:59;;;;;;;;;;;;;;;16.52;100.00;102142.00;4980313;28;19948;-87
2023/10/01 08:40:45;;;;;;;;;;;;;;;16.58;100.00;102146.19;4993791;28;19937;-88
2023/10/01 08:43:35;;;;;;;;;;;;;;;16.64;100.00;102135.16;4993591;28;20617;-86
2023/10/01 08:46:31;;;;;;;;;;;;;;;16.68;100.00;102134.09;4990963;28;19930;-86
2023/10/01 08:49:23;;;;;;;;;;;;;;;16.75;100.00;102145.31;4990131;28;19944;-87
2023/10/01 08:52:19;;;;;;;;;;;;;;;16.80;100.00;102146.84;4980704;28;19925;-88
2023/10/01 08:55:08;;;;;;;;;;;;;;;16.87;100.00;102138.47;4993854;28;19926;-86
2023/10/01 08:57:55;;;;;;;;;;;;;;;16.91;100.00;102140.03;4982413;28;19937;-88
2023/10/01 09:00:49;;;;;;;;;;;;;;;16.93;100.00;102147.06;4994068;28;20023;-87
2023/10/01 09:03:35;;;;;;;;;;;;;;;16.96;100.00;102162.94;4992274;28;20374;-87
2023/10/01 09:06:30;;;;;;;;;;;;;;;17.03;100.00;102158.16;4983774;28;20008;-88
2023/10/01 09:09:26;;;;;;;;;;;;;;;17.08;100.00;102149.91;4976192;28;19947;-85
2023/10/01 09:12:18;;;;;;;;;;;;;;;17.16;100.00;102153.03;4980181;28;20031;-88
2023/10/01 09:15:04;;;;;;;;;;;;;;;17.21;100.00;102145.63;4989451;28;20025;-86
2023/10/01 09:17:56;;;;;;;;;;;;;;;17.31;100.00;102153.16;4989322;28;20381;-85
2023/10/01 09:20:50;;;;;;;;;;;;;;;17.33;100.00;102149.47;4992143;28;20407;-86
2023/10/01 09:23:54;;;;;;;;;;;;;;;17.33;100.00;102149.47;4992106;28;19980;-86
2023/10/01 09:26:44;;;;;;;;;;;;;;;17.31;100.00;102147.81;4997915;28;19956;-85
2023/10/01 09:29:32;;;;;;;;;;;;;;;17.32;100.00;102141.53;4994167;28;20327;-85
2023/10/01 09:32:19;;;;;;;;;;;;;;;17.37;100.00;102148.34;4994316;28;20039;-87
2023/10/01 09:35:05;;;;;;;;;;;;;;;17.42;100.00;102147.25;4993269;28;19968;-87
2023/10/01 09:38:01;;;;;;;;;;;;;;;17.43;100.00;102148.97;4994702;28;20360;-87
2023/10/01 09:40:51;;;;;;;;;;;;;;;17.42;100.00;102136.56;4992887;28;19936;-86
2023/10/01 09:43:38;;;;;;;;;;;;;;;17.40;100.00;102141.09;4995606;28;19938;-87
2023/10/01 09:46:23;;;;;;;;;;;;;;;17.39;100.00;102132.22;4994621;28;19925;-89
2023/10/01 09:49:09;;;;;;;;;;;;;;;17.40;100.00;102141.09;4990367;28;20386;-87
2023/10/01 09:51:55;;;;;;;;;;;;;;;17.43;100.00;102152.50;4990414;28;19969;-86
2023/10/01 09:54:43;;;;;;;;;;;;;;;17.48;100.00;102145.09;4992115;28;19937;-86
2023/10/01 09:57:34;;;;;;;;;;;;;;;17.58;100.00;102147.25;4995595;28;19985;-86
2023/10/01 10:00:21;;;;;;;;;;;;;;;17.69;100.00;102144.03;4994228;28;19965;-87
2023/10/01 10:03:13;;;;;;;;;;;;;;;17.81;100.00;102147.81;4994840;28;19934;-88
2023/10/01 10:05:59;;;;;;;;;;;;;;;17.97;100.00;102143.31;4991732;28;20578;-88
2023/10/01 10:08:44;;;;;;;;;;;;;;;18.12;100.00;102146.13;4977005;28;19926;-88
2023/10/01 10:11:30;;;;;;;;;;;;;;;18.21;100.00;102144.72;4995048;28;19957;-90
2023/10/01 10:14:25;;;;;;;;;;;;;;;18.29;100.00;102145.13;4995956;28;20406;-87
2023/10/01 10:20:16;;;;;;;;;;;;;;;18.44;100.00;102151.44;4993910;28;19948;-88
2023/10/01 10:23:14;;;;;;;;;;;;;;;18.49;100.00;102143.13;4994560;28;19936;-89
2023/10/01 10:26:12;;;;;;;;;;;;;;;18.52;100.00;102146.47;4996221;28;20388;-90
2023/10/01 10:28:58;;;;;;;;;;;;;;;18.51;100.00;102152.81;4994773;28;20304;-91
2023/10/01 10:31:46;;;;;;;;;;;;;;;18.53;100.00;102150.88;4985644;28;19930;-88
2023/10/01 10:35:03;;;;;;;;;;;;;;;18.57;100.00;102146.22;4988536;28;20224;-87
2023/10/01 10:37:53;;;;;;;;;;;;;;;18.61;100.00;102142.41;4994601;28;20463;-87
2023/10/01 10:41:05;;;;;;;;;;;;;;;18.62;100.00;102149.50;4979703;28;19936;-89
2023/10/01 10:44:08;;;;;;;;;;;;;;;18.64;100.00;102139.56;4997343;28;19926;-86
2023/10/01 10:47:06;;;;;;;;;;;;;;;18.62;100.00;102159.38;4979070;28;19929;-89
2023/10/01 10:49:51;;;;;;;;;;;;;;;18.61;100.00;102147.75;4993641;28;20452;-88
2023/10/01 10:52:40;;;;;;;;;;;;;;;18.63;100.00;102139.63;4990764;28;19960;-90
2023/10/01 10:55:36;;;;;;;;;;;;;;;18.65;100.00;102140.41;4993985;28;20300;-86
2023/10/01 10:58:24;;;;;;;;;;;;;;;18.68;100.00;102133.03;4992942;28;19941;-87
2023/10/01 11:01:16;;;;;;;;;;;;;;;18.71;100.00;102126.63;4980942;28;19953;-89
2023/10/01 11:04:02;;;;;;;;;;;;;;;18.76;100.00;102129.03;4994677;28;20412;-86
2023/10/01 11:07:01;;;;;;;;;;;;;;;18.80;100.00;102136.78;4994025;28;20259;-88
2023/10/01 11:09:53;;;;;;;;;;;;;;;18.83;100.00;102136.63;4991898;28;20001;-88
2023/10/01 11:12:45;;;;;;;;;;;;;;;18.85;100.00;102136.53;4985602;28;19922;-87
2023/10/01 11:15:39;;;;;;;;;;;;;;;18.86;100.00;102131.06;4992498;28;19940;-88
2023/10/01 11:18:26;;;;;;;;;;;;;;;18.91;100.00;102132.63;4995369;28;20024;-86
2023/10/01 11:21:20;;;;;;;;;;;;;;;18.94;100.00;102133.28;4991759;28;20031;-86
2023/10/01 11:24:06;;;;;;;;;;;;;;;18.99;100.00;102136.56;4994439;28;19930;-86
2023/10/01 11:27:25;;;;;;;;;;;;;;;19.03;100.00;102141.75;4991382;28;19961;-87
2023/10/01 11:30:19;;;;;;;;;;;;;;;19.12;100.00;102130.47;4993934;28;19933;-89
2023/10/01 11:36:06;;;;;;;;;;;;;;;19.20;100.00;102127.31;4993341;28;19937;-89
2023/10/01 11:38:52;;;;;;;;;;;;;;;19.25;100.00;102127.88;5000557;28;21547;-88
2023/10/01 11:41:41;;;;;;;;;;;;;;;19.29;100.00;102131.25;4980656;28;19925;-91
2023/10/01 11:44:35;;;;;;;;;;;;;;;19.32;100.00;102126.53;4992745;28;19932;-89
2023/10/01 11:47:34;;;;;;;;;;;;;;;19.38;100.00;102119.91;4985564;28;19930;-86
2023/10/01 11:50:23;;;;;;;;;;;;;;;19.40;100.00;102116.19;4998898;28;19943;-90
2023/10/01 11:53:10;;;;;;;;;;;;;;;19.44;100.00;102118.69;4989816;28;20384;-91
2023/10/01 11:56:01;;;;;;;;;;;;;;;19.43;100.00;102123.19;4993227;28;20011;-88
2023/10/01 11:58:47;;;;;;;;;;;;;;;19.44;100.00;102126.75;4992839;28;20392;-86
2023/10/01 12:01:48;;;;;;;;;;;;;;;19.45;100.00;102125.78;4992898;28;19929;-89
2023/10/01 12:04:48;;;;;;;;;;;;;;;19.47;100.00;102130.09;4993755;28;19922;-87
2023/10/01 12:07:43;;;;;;;;;;;;;;;19.48;100.00;102131.81;4988342;28;19937;-88
2023/10/01 12:10:31;;;;;;;;;;;;;;;19.49;100.00;102117.44;4984700;28;20293;-87
2023/10/01 12:13:17;;;;;;;;;;;;;;;19.50;100.00;102124.50;4994226;28;19933;-85
2023/10/01 12:16:07;;;;;;;;;;;;;;;19.57;100.00;102116.94;4988759;28;19929;-88
2023/10/01 12:18:52;;;;;;;;;;;;;;;19.67;100.00;102114.53;4987507;28;19936;-89
2023/10/01 12:21:38;;;;;;;;;;;;;;;19.80;100.00;102114.59;4992923;28;19999;-84
2023/10/01 12:24:28;;;;;;;;;;;;;;;19.87;100.00;102113.22;4993862;28;20428;-89
2023/10/01 12:27:37;;;;;;;;;;;;;;;19.93;100.00;102122.72;4979398;28;20456;-86
2023/10/01 12:30:28;;;;;;;;;;;;;;;19.98;100.00;102122.47;4994272;28;19934;-85
2023/10/01 12:33:14;;;;;;;;;;;;;;;20.02;100.00;102113.22;4984308;28;19932;-86
2023/10/01 12:36:03;;;;;;;;;;;;;;;20.09;100.00;102125.28;4990800;28;20147;-88
2023/10/01 12:38:49;;;;;;;;;;;;;;;20.14;100.00;102112.41;4997584;28;20507;-91
2023/10/01 12:41:47;;;;;;;;;;;;;;;20.21;100.00;102107.50;4991187;28;19930;-87
2023/10/01 12:44:34;;;;;;;;;;;;;;;20.20;100.00;102114.69;4984145;28;20056;-87
2023/10/01 12:47:40;;;;;;;;;;;;;;;20.12;100.00;102114.34;4990750;28;19930;-90
2023/10/01 12:50:31;;;;;;;;;;;;;;;20.05;100.00;102116.56;4980607;28;19933;-91
2023/10/01 12:53:20;;;;;;;;;;;;;;;20.04;100.00;102112.16;4992592;28;19930;-88
2023/10/01 12:56:06;;;;;;;;;;;;;;;20.07;100.00;102106.59;4997786;28;19937;-85
2023/10/01 12:58:53;;;;;;;;;;;;;;;20.10;100.00;102102.81;4997272;28;20392;-89
2023/10/01 13:01:39;;;;;;;;;;;;;;;20.17;100.00;102101.47;4995402;28;19941;-91
2023/10/01 13:04:32;;;;;;;;;;;;;;;20.22;100.00;102103.84;4986810;28;20421;-90
2023/10/01 13:07:35;;;;;;;;;;;;;;;20.25;100.00;102100.09;4997689;28;19933;-90
2023/10/01 13:10:34;;;;;;;;;;;;;;;20.27;100.00;102100.84;4999289;28;19926;-88
2023/10/01 13:13:20;;;;;;;;;;;;;;;20.26;100.00;102099.97;4998918;28;20016;-89
2023/10/01 13:16:16;;;;;;;;;;;;;;;20.26;100.00;102099.97;4999372;28;20446;-89
2023/10/01 13:19:17;;;;;;;;;;;;;;;20.26;100.00;102091.91;4997900;28;19933;-92
2023/10/01 13:22:06;;;;;;;;;;;;;;;20.30;100.00;102090.75;4998666;28;19944;-89
2023/10/01 13:24:54;;;;;;;;;;;;;;;20.35;100.00;102085.06;4988403;28;19940;-91
2023/10/01 13:27:46;;;;;;;;;;;;;;;20.38;100.00;102086.69;4995160;28;19929;-86
2023/10/01 13:31:03;;;;;;;;;;;;;;;20.36;100.00;102078.69;4997588;28;20005;-88
2023/10/01 13:33:56;;;;;;;;;;;;;;;20.29;100.00;102091.72;4996623;28;20441;-89
2023/10/01 13:37:11;;;;;;;;;;;;;;;20.28;100.00;102086.44;5000507;28;19937;-85
2023/10/01 14:11:26;;;;;;;;;;;;;;;20.18;100.00;102045.88;4995368;28;19976;-93
2023/10/01 14:14:16;;;;;;;;;;;;;;;20.15;100.00;102049.63;4996047;28;20299;-90
2023/10/01 14:17:14;;;;;;;;;;;;;;;20.15;100.00;102048.78;4996038;28;20040;-91
2023/10/01 14:20:05;;;;;;;;;;;;;;;20.13;100.00;102048.00;4988922;28;19929;-87
2023/10/01 14:23:00;;;;;;;;;;;;;;;20.10;100.00;102041.00;4987943;28;19939;-91
2023/10/01 14:28:55;;;;;;;;;;;;;;;20.04;100.00;102031.53;4992637;28;19932;-92
2023/10/01 14:31:41;;;;;;;;;;;;;;;20.04;100.00;102039.59;5000221;28;19961;-87
2023/10/01 14:34:27;;;;;;;;;;;;;;;20.02;100.00;102028.09;4996137;28;19936;-86
2023/10/01 14:37:16;;;;;;;;;;;;;;;20.00;100.00;102031.84;4996172;28;19985;-90
2023/10/01 14:40:13;;;;;;;;;;;;;;;20.00;100.00;102029.16;4989104;28;19948;-88
2023/10/01 14:42:59;;;;;;;;;;;;;;;20.03;100.00;102028.94;4989531;28;19937;-87
2023/10/01 14:45:44;;;;;;;;;;;;;;;20.05;100.00;102027.88;4990913;28;19926;-88
2023/10/01 14:48:38;;;;;;;;;;;;;;;20.05;100.00;102016.28;4995371;28;19949;-89
2023/10/01 14:51:31;;;;;;;;;;;;;;;20.06;100.00;102028.75;4996645;28;19925;-90
2023/10/01 14:54:19;;;;;;;;;;;;;;;20.07;100.00;102015.22;4996652;28;19941;-90
2023/10/01 14:57:07;;;;;;;;;;;;;;;20.06;100.00;102018.00;4994259;28;19940;-86
2023/10/01 14:59:56;;;;;;;;;;;;;;;20.02;100.00;102022.72;5000684;28;19937;-88
2023/10/01 15:02:41;;;;;;;;;;;;;;;20.03;100.00;102023.56;4995052;28;19940;-87
2023/10/01 15:05:27;;;;;;;;;;;;;;;20.03;100.00;102024.44;4993818;28;19953;-90
2023/10/01 15:08:15;;;;;;;;;;;;;;;20.01;100.00;102026.38;4993481;28;19930;-90
2023/10/01 15:11:11;;;;;;;;;;;;;;;19.97;100.00;102035.59;4994885;28;20128;-90
2023/10/01 15:13:57;;;;;;;;;;;;;;;19.93;100.00;102029.53;4988660;28;19964;-86
2023/10/01 15:16:43;;;;;;;;;;;;;;;19.89;100.00;102024.47;4992555;28;19931;-88
2023/10/01 15:19:30;;;;;;;;;;;;;;;19.83;100.00;102027.56;5000093;28;19932;-91